Time;durP1;ratioP1;P1;durP2;ratioP2;P2;SDS_P1;SDS_P2;PMS_P1;PMS_P2;Temp;Humidity;BMP_temperature;BMP_pressure;BME280_temperature;BME280_humidity;BME280_pressure;Samples;Min_cycle;Max_cycle;Signal;HPM_P1;HPM_P2
2023/10/28 00:00:58;;;;;;;1.20;0.50;;;10.90;99.90;;;;;;5118574;28;20035;-71
2023/10/28 00:03:24;;;;;;;3.90;0.52;;;10.90;99.90;;;;;;5100324;28;20031;-71
2023/10/28 00:05:49;;;;;;;2.60;0.50;;;10.80;99.90;;;;;;5118251;28;20027;-71
2023/10/28 00:08:15;;;;;;;2.58;0.60;;;10.80;99.90;;;;;;5118813;28;20035;-71
2023/10/28 00:10:42;;;;;;;2.25;0.40;;;10.80;99.90;;;;;;5118333;28;20032;-71
2023/10/28 00:13:08;;;;;;;1.85;0.40;;;10.80;99.90;;;;;;5122008;27;20087;-71
2023/10/28 00:15:35;;;;;;;1.00;0.40;;;10.80;99.90;;;;;;5123950;27;20020;-71
2023/10/28 00:18:03;;;;;;;1.83;0.50;;;10.70;99.90;;;;;;5118518;28;20019;-71
2023/10/28 00:20:32;;;;;;;1.75;0.40;;;10.70;99.90;;;;;;5118276;28;20368;-71
2023/10/28 00:22:58;;;;;;;1.67;0.50;;;10.60;99.90;;;;;;5118653;28;20023;-71
2023/10/28 00:25:25;;;;;;;1.00;0.50;;;10.60;99.90;;;;;;5117962;28;20019;-71
2023/10/28 00:27:54;;;;;;;0.65;0.35;;;10.60;99.90;;;;;;5118102;28;20016;-71
2023/10/28 00:30:22;;;;;;;1.67;0.40;;;10.50;99.90;;;;;;5099818;28;20031;-71
2023/10/28 00:32:49;;;;;;;0.95;0.20;;;10.50;99.90;;;;;;5118265;28;20007;-71
2023/10/28 00:35:15;;;;;;;1.73;0.52;;;10.50;99.90;;;;;;5099621;28;20039;-71
2023/10/28 00:37:41;;;;;;;1.27;0.60;;;10.40;99.90;;;;;;5118167;28;20070;-71
2023/10/28 00:40:07;;;;;;;2.33;0.70;;;10.40;99.90;;;;;;5099534;28;20036;-71
2023/10/28 00:42:36;;;;;;;1.30;0.65;;;10.30;99.90;;;;;;5118042;28;20044;-71
2023/10/28 00:45:03;;;;;;;1.30;0.50;;;10.40;99.90;;;;;;5117860;28;20023;-71
2023/10/28 00:47:29;;;;;;;2.40;0.52;;;10.30;99.90;;;;;;5099251;28;20023;-71
2023/10/28 00:49:55;;;;;;;1.17;0.38;;;10.30;99.90;;;;;;5117751;28;20506;-71
2023/10/28 00:52:21;;;;;;;0.70;0.40;;;10.30;99.90;;;;;;5089952;28;20023;-71
2023/10/28 00:54:48;;;;;;;1.45;0.50;;;10.30;99.90;;;;;;5099399;28;20032;-71
2023/10/28 00:57:16;;;;;;;0.73;0.30;;;10.30;99.90;;;;;;5118013;28;20391;-71
2023/10/28 00:59:42;;;;;;;1.33;0.30;;;10.20;99.90;;;;;;5099201;28;20453;-71
2023/10/28 01:02:12;;;;;;;2.58;0.47;;;10.20;99.90;;;;;;5117565;28;20042;-71
2023/10/28 01:04:38;;;;;;;1.42;0.40;;;10.20;99.90;;;;;;5117646;28;20058;-71
2023/10/28 01:07:04;;;;;;;2.13;0.57;;;10.20;99.90;;;;;;5117745;28;20463;-71
2023/10/28 01:09:30;;;;;;;1.35;0.30;;;10.20;99.90;;;;;;5117666;28;20031;-71
2023/10/28 01:11:55;;;;;;;0.60;0.30;;;10.20;99.90;;;;;;5099281;28;20030;-71
2023/10/28 01:14:21;;;;;;;0.82;0.40;;;10.10;99.90;;;;;;5108091;28;20027;-71
2023/10/28 01:16:49;;;;;;;1.38;0.55;;;10.10;99.90;;;;;;5117706;28;20053;-71
2023/10/28 01:19:15;;;;;;;1.00;0.25;;;10.10;99.90;;;;;;5117665;28;20047;-71
2023/10/28 01:21:42;;;;;;;2.08;0.40;;;10.10;99.90;;;;;;5099184;28;20016;-71
2023/10/28 01:24:08;;;;;;;1.35;0.35;;;10.10;99.90;;;;;;5117424;28;20043;-71
2023/10/28 01:26:34;;;;;;;2.13;0.40;;;10.00;99.90;;;;;;5117505;28;20072;-71
2023/10/28 01:29:00;;;;;;;1.42;0.50;;;10.10;99.90;;;;;;5117196;28;20024;-71
2023/10/28 01:31:26;;;;;;;2.83;0.52;;;10.00;99.90;;;;;;5117525;28;20019;-72
2023/10/28 01:33:52;;;;;;;1.60;0.50;;;10.00;99.90;;;;;;5117268;28;20498;-71
2023/10/28 01:36:18;;;;;;;2.53;0.40;;;10.00;99.90;;;;;;5117409;28;20023;-71
2023/10/28 01:38:44;;;;;;;1.33;0.43;;;10.00;99.90;;;;;;5117277;28;20023;-71
2023/10/28 01:41:12;;;;;;;2.58;0.60;;;10.00;99.90;;;;;;5099021;28;20524;-71
2023/10/28 01:43:40;;;;;;;2.25;0.40;;;10.00;99.90;;;;;;5116906;28;20081;-72
2023/10/28 01:46:06;;;;;;;1.33;0.40;;;9.90;99.90;;;;;;5117423;28;20032;-71
2023/10/28 01:48:32;;;;;;;2.92;0.45;;;9.90;99.90;;;;;;5117193;28;20054;-72
2023/10/28 01:50:57;;;;;;;5.22;0.60;;;9.90;99.90;;;;;;5126057;28;20487;-71
2023/10/28 01:53:24;;;;;;;0.82;0.43;;;9.90;99.90;;;;;;5117384;28;20020;-71
2023/10/28 01:55:50;;;;;;;1.55;0.55;;;9.90;99.90;;;;;;5117039;28;20068;-71
2023/10/28 01:58:17;;;;;;;1.27;0.50;;;9.80;99.90;;;;;;5099703;28;20043;-71
2023/10/28 02:00:43;;;;;;;2.65;0.40;;;9.80;99.90;;;;;;5120847;28;20032;-72
2023/10/28 02:03:11;;;;;;;0.68;0.30;;;9.80;99.90;;;;;;5121076;28;20073;-71
2023/10/28 02:05:40;;;;;;;1.00;0.30;;;9.70;99.90;;;;;;5121030;28;20061;-71
2023/10/28 02:08:06;;;;;;;0.75;0.30;;;9.70;99.90;;;;;;5121042;28;20024;-71
2023/10/28 02:10:32;;;;;;;1.42;0.30;;;9.70;99.90;;;;;;5120871;28;20020;-71
2023/10/28 02:12:58;;;;;;;1.17;0.40;;;9.60;99.90;;;;;;5122990;27;20023;-71
2023/10/28 02:15:25;;;;;;;1.73;0.45;;;9.60;99.90;;;;;;5126622;27;20476;-71
2023/10/28 02:17:51;;;;;;;1.38;0.38;;;9.60;99.90;;;;;;5120904;28;20055;-71
2023/10/28 02:20:16;;;;;;;1.58;0.40;;;9.50;99.90;;;;;;5120789;28;20073;-71
2023/10/28 02:22:42;;;;;;;1.02;0.22;;;9.50;99.90;;;;;;5102389;28;20027;-71
2023/10/28 02:25:09;;;;;;;0.82;0.35;;;9.40;99.90;;;;;;5120570;28;20019;-73
2023/10/28 02:27:37;;;;;;;1.80;0.38;;;9.40;99.90;;;;;;5102199;28;20031;-71
2023/10/28 02:30:07;;;;;;;1.88;0.68;;;9.40;99.90;;;;;;5120306;28;20484;-71
2023/10/28 02:32:33;;;;;;;1.25;0.30;;;9.40;99.90;;;;;;5120717;28;20023;-71
2023/10/28 02:34:59;;;;;;;2.47;0.60;;;9.50;99.90;;;;;;5101879;28;20031;-71
2023/10/28 02:37:26;;;;;;;4.43;0.68;;;9.50;99.90;;;;;;5120375;28;20019;-72
2023/10/28 02:39:53;;;;;;;1.73;0.45;;;9.60;99.90;;;;;;5101828;28;20023;-71
2023/10/28 02:42:23;;;;;;;0.73;0.35;;;9.60;99.90;;;;;;5102017;28;20024;-71
2023/10/28 02:44:50;;;;;;;2.35;0.50;;;9.70;99.90;;;;;;5101548;28;20054;-71
2023/10/28 02:47:16;;;;;;;2.45;0.65;;;9.70;99.90;;;;;;5120496;28;20471;-71
2023/10/28 02:49:41;;;;;;;2.75;0.40;;;9.70;99.90;;;;;;5119862;28;20103;-71
2023/10/28 02:52:07;;;;;;;2.60;0.50;;;9.80;99.90;;;;;;5129214;27;20476;-72
2023/10/28 02:54:35;;;;;;;3.05;0.60;;;9.80;99.90;;;;;;5119952;28;20028;-72
2023/10/28 02:57:01;;;;;;;2.63;0.70;;;9.90;99.90;;;;;;5119848;28;20034;-72
2023/10/28 02:59:27;;;;;;;1.13;0.45;;;10.00;99.90;;;;;;5119832;28;20324;-71
2023/10/28 03:01:53;;;;;;;4.10;0.80;;;10.00;99.90;;;;;;5101536;28;20126;-71
2023/10/28 03:04:19;;;;;;;1.98;0.50;;;10.00;99.90;;;;;;5119801;28;20012;-71
2023/10/28 03:06:45;;;;;;;3.95;0.93;;;10.00;99.90;;;;;;5119977;28;20028;-71
2023/10/28 03:09:11;;;;;;;2.10;0.57;;;10.00;99.90;;;;;;5119299;28;20550;-71
2023/10/28 03:11:37;;;;;;;1.70;0.70;;;10.00;99.90;;;;;;5101306;28;20031;-71
2023/10/28 03:14:04;;;;;;;5.20;0.88;;;9.90;99.90;;;;;;5128009;27;20015;-71
2023/10/28 03:16:30;;;;;;;3.45;0.68;;;9.90;99.90;;;;;;5101332;28;20032;-72
2023/10/28 03:18:56;;;;;;;2.95;0.80;;;9.90;99.90;;;;;;5101239;28;20499;-71
2023/10/28 03:21:22;;;;;;;4.18;0.85;;;10.00;99.90;;;;;;5119706;28;20024;-71
2023/10/28 03:23:47;;;;;;;2.75;0.63;;;10.00;99.90;;;;;;5119383;28;20396;-71
2023/10/28 03:26:13;;;;;;;5.13;0.90;;;10.10;99.90;;;;;;5119440;28;20024;-71
2023/10/28 03:28:39;;;;;;;2.50;0.70;;;10.10;99.90;;;;;;5119123;28;20076;-71
2023/10/28 03:31:11;;;;;;;2.70;0.70;;;10.20;99.90;;;;;;5119379;28;20438;-71
2023/10/28 03:33:38;;;;;;;4.47;0.80;;;10.20;99.90;;;;;;5119210;28;20511;-71
2023/10/28 03:36:09;;;;;;;3.67;0.60;;;10.20;99.90;;;;;;5119324;28;20027;-71
2023/10/28 03:38:35;;;;;;;3.30;0.70;;;10.10;99.90;;;;;;5100867;28;20015;-71
2023/10/28 03:41:11;;;;;;;2.00;0.63;;;10.20;99.90;;;;;;5118945;28;20038;-71
2023/10/28 03:43:37;;;;;;;2.85;0.68;;;10.20;99.90;;;;;;5118748;28;20026;-71
2023/10/28 03:46:03;;;;;;;4.18;0.70;;;10.20;99.90;;;;;;5119159;28;20027;-71
2023/10/28 03:48:30;;;;;;;5.43;1.00;;;10.20;99.90;;;;;;5118878;28;20038;-71
2023/10/28 03:51:00;;;;;;;3.20;1.00;;;10.30;99.90;;;;;;5127437;27;20038;-71
2023/10/28 03:53:25;;;;;;;3.63;0.70;;;10.30;99.90;;;;;;5105698;28;20019;-71
2023/10/28 03:55:51;;;;;;;2.42;0.70;;;10.30;99.90;;;;;;5118685;28;20381;-71
2023/10/28 03:58:17;;;;;;;3.10;0.70;;;10.30;99.90;;;;;;5100158;28;20024;-71
2023/10/28 04:00:43;;;;;;;2.20;0.80;;;10.30;99.90;;;;;;5118472;28;20061;-71
2023/10/28 04:03:08;;;;;;;4.63;0.90;;;10.30;99.90;;;;;;5100370;28;20024;-71
2023/10/28 04:05:34;;;;;;;3.72;0.98;;;10.30;99.90;;;;;;5118647;28;20071;-71
2023/10/28 04:08:00;;;;;;;3.65;0.77;;;10.30;99.90;;;;;;5118508;28;20034;-71
2023/10/28 04:10:25;;;;;;;5.05;0.70;;;10.30;99.90;;;;;;5118529;28;20023;-71
2023/10/28 04:12:51;;;;;;;2.35;0.55;;;10.30;99.90;;;;;;5119417;27;20019;-71
2023/10/28 04:15:18;;;;;;;3.28;0.63;;;10.30;99.90;;;;;;5125759;27;20047;-71
2023/10/28 04:17:44;;;;;;;5.55;0.70;;;10.30;99.90;;;;;;5099951;28;20110;-71
2023/10/28 04:20:10;;;;;;;2.47;0.70;;;10.40;99.90;;;;;;5118227;28;20164;-71
2023/10/28 04:22:36;;;;;;;4.38;0.68;;;10.40;99.90;;;;;;5118251;28;20071;-71
2023/10/28 04:25:02;;;;;;;2.35;0.50;;;10.40;99.90;;;;;;5118160;28;20080;-71
2023/10/28 04:27:29;;;;;;;1.70;0.55;;;10.50;99.90;;;;;;5118451;28;20024;-71
2023/10/28 04:29:54;;;;;;;2.90;0.80;;;10.60;99.90;;;;;;5099758;28;20028;-71
2023/10/28 04:32:22;;;;;;;2.67;0.68;;;10.60;99.90;;;;;;5118412;28;20038;-71
2023/10/28 04:34:48;;;;;;;4.47;0.85;;;10.60;99.90;;;;;;5099830;28;20030;-71
2023/10/28 04:37:14;;;;;;;5.03;0.82;;;10.60;99.90;;;;;;5118160;28;20046;-71
2023/10/28 04:39:40;;;;;;;3.53;0.77;;;10.60;99.90;;;;;;5117800;28;20193;-71
2023/10/28 04:42:07;;;;;;;3.78;0.75;;;10.60;99.90;;;;;;5099573;28;20392;-72
2023/10/28 04:44:33;;;;;;;3.88;0.77;;;10.70;99.90;;;;;;5117936;28;20027;-71
2023/10/28 04:47:01;;;;;;;3.08;0.80;;;10.60;99.90;;;;;;5099838;28;20046;-71
2023/10/28 04:49:30;;;;;;;3.60;0.63;;;10.60;99.90;;;;;;5117809;28;20032;-71
2023/10/28 04:51:55;;;;;;;3.55;0.63;;;10.60;99.90;;;;;;5127571;27;20076;-71
2023/10/28 04:54:22;;;;;;;2.80;0.80;;;10.70;99.90;;;;;;5117898;28;20061;-71
2023/10/28 04:56:48;;;;;;;3.38;0.85;;;10.60;99.90;;;;;;5117549;28;20023;-71
2023/10/28 04:59:15;;;;;;;2.60;0.57;;;10.70;99.90;;;;;;5117603;28;20114;-71
2023/10/28 05:01:41;;;;;;;3.42;0.85;;;10.70;99.90;;;;;;5117745;28;20419;-72
2023/10/28 05:04:09;;;;;;;3.45;0.75;;;10.60;99.90;;;;;;5117665;28;20078;-71
2023/10/28 05:06:35;;;;;;;3.50;0.63;;;10.60;99.90;;;;;;5117974;28;20020;-71
2023/10/28 05:09:01;;;;;;;2.58;0.70;;;10.60;99.90;;;;;;5117627;28;20035;-71
2023/10/28 05:11:26;;;;;;;4.30;0.70;;;10.60;99.90;;;;;;5117790;28;20072;-71
2023/10/28 05:13:52;;;;;;;5.10;1.08;;;10.70;99.90;;;;;;5126252;28;20023;-72
2023/10/28 05:16:19;;;;;;;5.63;0.95;;;10.70;99.90;;;;;;5117812;28;20030;-71
2023/10/28 05:18:45;;;;;;;5.05;0.98;;;10.80;99.90;;;;;;5117647;28;20020;-71
2023/10/28 05:21:11;;;;;;;5.43;0.82;;;10.80;99.90;;;;;;5117594;28;20018;-71
2023/10/28 05:23:37;;;;;;;2.67;0.60;;;10.90;99.90;;;;;;5117557;28;20027;-72
2023/10/28 05:26:04;;;;;;;5.15;0.68;;;10.90;99.90;;;;;;5117697;28;20066;-72
2023/10/28 05:28:30;;;;;;;2.58;0.57;;;11.00;99.90;;;;;;5117442;28;20060;-71
2023/10/28 05:30:56;;;;;;;3.53;0.60;;;11.00;99.90;;;;;;5117299;28;20053;-72
2023/10/28 05:33:21;;;;;;;3.20;0.77;;;11.10;99.90;;;;;;5103067;28;20480;-72
2023/10/28 05:35:48;;;;;;;3.00;0.70;;;11.10;99.90;;;;;;5102821;28;20031;-72
2023/10/28 05:38:14;;;;;;;5.47;0.75;;;11.10;99.90;;;;;;5119003;28;20711;-72
2023/10/28 05:40:40;;;;;;;2.88;0.60;;;11.00;99.90;;;;;;5101573;28;20098;-72
2023/10/28 05:43:05;;;;;;;2.22;0.52;;;10.90;99.90;;;;;;5120641;28;20034;-72
2023/10/28 05:45:31;;;;;;;2.70;0.63;;;10.90;99.90;;;;;;5121270;28;20055;-72
2023/10/28 05:47:57;;;;;;;3.47;0.70;;;10.90;99.90;;;;;;5121231;28;20028;-72
2023/10/28 05:50:23;;;;;;;4.05;0.73;;;10.90;99.90;;;;;;5122093;27;20083;-72
2023/10/28 05:52:49;;;;;;;2.03;0.60;;;10.90;99.90;;;;;;5120662;28;20023;-72
2023/10/28 05:55:14;;;;;;;4.97;0.80;;;10.90;99.90;;;;;;5121011;28;20019;-72
2023/10/28 05:57:40;;;;;;;3.30;0.63;;;10.80;99.90;;;;;;5119584;28;20407;-72
2023/10/28 06:00:13;;;;;;;2.08;0.70;;;10.80;99.90;;;;;;5121229;28;20027;-72
2023/10/28 06:02:39;;;;;;;3.33;0.70;;;10.70;99.90;;;;;;5121020;28;20508;-72
2023/10/28 06:05:06;;;;;;;2.42;0.60;;;10.70;99.90;;;;;;5121084;28;20023;-72
2023/10/28 06:07:32;;;;;;;4.80;0.88;;;10.70;99.90;;;;;;5120439;28;20059;-72
2023/10/28 06:09:59;;;;;;;3.20;0.77;;;10.70;99.90;;;;;;5120150;28;20044;-72
2023/10/28 06:12:25;;;;;;;3.10;0.63;;;10.70;99.90;;;;;;5120239;28;20085;-72
2023/10/28 06:14:53;;;;;;;5.20;0.82;;;10.70;99.90;;;;;;5122475;27;20055;-72
2023/10/28 06:17:20;;;;;;;2.15;0.73;;;10.60;99.90;;;;;;5120667;28;20055;-72
2023/10/28 06:19:46;;;;;;;2.50;0.70;;;10.60;99.90;;;;;;5120184;28;20065;-72
2023/10/28 06:22:12;;;;;;;4.20;0.68;;;10.60;99.90;;;;;;5120269;28;20036;-72
2023/10/28 06:24:38;;;;;;;5.47;0.82;;;10.60;99.90;;;;;;5120571;28;20073;-72
2023/10/28 06:27:05;;;;;;;3.72;0.90;;;10.50;99.90;;;;;;5120396;28;20079;-72
2023/10/28 06:29:31;;;;;;;2.10;0.57;;;10.50;99.90;;;;;;5101886;28;20038;-72
2023/10/28 06:31:58;;;;;;;4.38;1.38;;;10.40;99.90;;;;;;5101690;28;20027;-72
2023/10/28 06:34:27;;;;;;;6.32;0.95;;;10.50;99.90;;;;;;5102234;28;20384;-72
2023/10/28 06:36:55;;;;;;;2.63;0.77;;;10.40;99.90;;;;;;5119828;28;20099;-72
2023/10/28 06:39:21;;;;;;;4.05;0.95;;;10.40;99.90;;;;;;5120163;28;20024;-72
2023/10/28 06:41:51;;;;;;;3.22;0.82;;;10.40;99.90;;;;;;5120186;28;20015;-72
2023/10/28 06:44:18;;;;;;;2.55;0.80;;;10.40;99.90;;;;;;5101003;28;20091;-72
2023/10/28 06:46:44;;;;;;;3.38;0.80;;;10.40;99.90;;;;;;5120132;28;20023;-72
2023/10/28 06:49:10;;;;;;;3.25;0.73;;;10.40;99.90;;;;;;5120230;28;20054;-72
2023/10/28 06:51:35;;;;;;;3.50;0.70;;;10.50;99.90;;;;;;5129294;27;20015;-72
2023/10/28 06:54:04;;;;;;;1.77;0.52;;;10.50;99.90;;;;;;5120189;28;20039;-72
2023/10/28 06:56:30;;;;;;;4.78;0.88;;;10.50;99.90;;;;;;5101463;28;20059;-72
2023/10/28 06:58:56;;;;;;;1.77;0.77;;;10.50;99.90;;;;;;5119813;28;20111;-72
2023/10/28 07:01:22;;;;;;;2.17;0.70;;;10.40;99.90;;;;;;5119708;28;20067;-72
2023/10/28 07:03:47;;;;;;;4.80;0.70;;;10.40;99.90;;;;;;5101557;28;20028;-72
2023/10/28 07:06:17;;;;;;;2.00;0.60;;;10.50;99.90;;;;;;5101392;28;20061;-72
2023/10/28 07:08:44;;;;;;;3.30;0.90;;;10.50;99.90;;;;;;5119874;28;20472;-71
2023/10/28 07:11:13;;;;;;;2.33;0.65;;;10.50;99.90;;;;;;5119562;28;20493;-71
2023/10/28 07:13:39;;;;;;;3.38;0.93;;;10.60;99.90;;;;;;5127508;27;20027;-71
2023/10/28 07:16:05;;;;;;;2.30;0.77;;;10.70;99.90;;;;;;5120174;27;20038;-72
2023/10/28 07:18:32;;;;;;;3.45;0.73;;;10.70;99.90;;;;;;5119768;28;20024;-71
2023/10/28 07:20:58;;;;;;;2.88;0.88;;;10.70;99.90;;;;;;5119644;28;20583;-72
2023/10/28 07:23:26;;;;;;;2.83;0.93;;;10.80;99.90;;;;;;5119636;28;20051;-72
2023/10/28 07:25:53;;;;;;;3.50;0.93;;;10.90;99.90;;;;;;5101140;28;20026;-72
2023/10/28 07:28:18;;;;;;;3.60;0.80;;;10.90;99.90;;;;;;5119272;28;20395;-72
2023/10/28 07:30:50;;;;;;;2.33;0.75;;;10.90;99.90;;;;;;5101252;28;20027;-72
2023/10/28 07:33:19;;;;;;;5.18;0.90;;;11.00;99.90;;;;;;5119607;27;20050;-72
2023/10/28 07:35:47;;;;;;;3.95;1.02;;;11.00;99.90;;;;;;5100455;28;20023;-72
2023/10/28 07:38:14;;;;;;;2.05;0.93;;;11.10;99.90;;;;;;5123500;27;20402;-71
2023/10/28 07:40:41;;;;;;;2.92;0.82;;;11.20;99.90;;;;;;5118753;28;20035;-72
2023/10/28 07:43:06;;;;;;;3.35;1.00;;;11.20;99.90;;;;;;5099989;28;20035;-71
2023/10/28 07:45:33;;;;;;;5.15;1.00;;;11.20;99.90;;;;;;5119150;28;20023;-71
2023/10/28 07:47:59;;;;;;;2.25;0.57;;;11.30;99.90;;;;;;5118973;28;20073;-72
2023/10/28 07:50:24;;;;;;;2.97;0.73;;;11.30;99.90;;;;;;5123145;27;20015;-72
2023/10/28 07:52:50;;;;;;;5.03;0.93;;;11.30;99.90;;;;;;5124131;27;20027;-72
2023/10/28 07:55:16;;;;;;;2.50;0.77;;;11.40;99.90;;;;;;5118193;28;20071;-72
2023/10/28 07:57:43;;;;;;;5.30;0.90;;;11.40;99.90;;;;;;5099717;28;20030;-72
2023/10/28 08:00:11;;;;;;;2.38;0.90;;;11.50;99.90;;;;;;5100246;28;20043;-72
2023/10/28 08:02:37;;;;;;;3.67;0.70;;;11.50;99.90;;;;;;5118318;28;20069;-71
2023/10/28 08:05:05;;;;;;;2.67;0.88;;;11.60;99.90;;;;;;5118659;28;20015;-71
2023/10/28 08:07:30;;;;;;;3.65;0.80;;;11.70;99.90;;;;;;5118400;28;20024;-72
2023/10/28 08:09:57;;;;;;;3.95;0.80;;;11.70;99.90;;;;;;5100129;28;20019;-71
2023/10/28 08:12:25;;;;;;;2.22;0.70;;;11.80;99.90;;;;;;5118319;28;20476;-71
2023/10/28 08:14:51;;;;;;;4.70;0.80;;;11.90;99.90;;;;;;5127806;27;20098;-72
2023/10/28 08:17:16;;;;;;;4.30;1.05;;;12.00;99.90;;;;;;5118256;28;20044;-71
2023/10/28 08:19:42;;;;;;;3.60;0.77;;;12.00;99.90;;;;;;5100064;28;20020;-71
2023/10/28 08:22:07;;;;;;;2.35;0.80;;;12.10;99.90;;;;;;5117936;28;20045;-71
2023/10/28 08:24:33;;;;;;;4.03;0.95;;;12.20;99.90;;;;;;5118535;28;20016;-71
2023/10/28 08:26:59;;;;;;;2.90;0.82;;;12.20;99.90;;;;;;5118083;28;20480;-71
2023/10/28 08:29:24;;;;;;;3.53;0.80;;;12.30;99.90;;;;;;5118062;28;20059;-71
2023/10/28 08:31:50;;;;;;;3.83;0.77;;;12.30;99.90;;;;;;5118026;28;20038;-71
2023/10/28 08:34:16;;;;;;;3.38;0.75;;;12.50;99.90;;;;;;5118404;28;20028;-71
2023/10/28 08:36:42;;;;;;;3.35;0.90;;;12.50;99.90;;;;;;5117894;28;20068;-72
2023/10/28 08:39:07;;;;;;;3.65;0.90;;;12.60;99.90;;;;;;5118259;28;20067;-71
2023/10/28 08:41:35;;;;;;;2.08;0.63;;;12.60;99.90;;;;;;5099447;28;20898;-71
2023/10/28 08:44:04;;;;;;;3.28;0.85;;;12.60;99.90;;;;;;5118026;28;20491;-71
2023/10/28 08:46:32;;;;;;;6.18;1.25;;;12.70;99.90;;;;;;5117826;28;20035;-71
2023/10/28 08:48:59;;;;;;;4.75;0.98;;;12.70;99.90;;;;;;5117865;28;20449;-71
2023/10/28 08:51:25;;;;;;;4.40;0.90;;;12.70;99.90;;;;;;5127119;27;20031;-71
2023/10/28 08:53:58;;;;;;;3.03;0.95;;;12.80;99.90;;;;;;5117942;28;20415;-71
2023/10/28 08:56:26;;;;;;;3.30;0.88;;;12.80;99.90;;;;;;5117266;28;20072;-70
2023/10/28 08:58:55;;;;;;;3.00;0.90;;;12.80;99.90;;;;;;5117862;28;20031;-72
2023/10/28 09:01:22;;;;;;;4.15;0.90;;;12.90;99.90;;;;;;5117568;28;20039;-70
2023/10/28 09:03:54;;;;;;;4.75;0.80;;;12.90;99.90;;;;;;5117573;28;20103;-71
2023/10/28 09:06:20;;;;;;;2.63;0.80;;;13.00;99.90;;;;;;5099035;28;20031;-71
2023/10/28 09:08:46;;;;;;;5.43;1.15;;;13.10;99.90;;;;;;5117269;28;20038;-71
2023/10/28 09:11:12;;;;;;;3.75;1.13;;;13.20;99.90;;;;;;5116993;28;20020;-71
2023/10/28 09:13:42;;;;;;;5.15;1.10;;;13.30;99.90;;;;;;5106458;28;20015;-70
2023/10/28 09:16:08;;;;;;;1.83;0.70;;;13.40;99.90;;;;;;5117506;28;20031;-71
2023/10/28 09:18:42;;;;;;;4.10;1.20;;;13.40;99.90;;;;;;5117273;28;20047;-71
2023/10/28 09:21:09;;;;;;;3.42;0.90;;;13.50;99.90;;;;;;5099359;28;20418;-71
2023/10/28 09:23:39;;;;;;;5.25;1.00;;;13.50;99.90;;;;;;5117210;28;20031;-71
2023/10/28 09:26:05;;;;;;;4.28;1.05;;;13.50;99.90;;;;;;5099141;28;20028;-71
2023/10/28 09:28:31;;;;;;;3.72;1.00;;;13.60;99.90;;;;;;5116974;28;20505;-71
2023/10/28 09:30:59;;;;;;;3.90;0.93;;;13.60;99.90;;;;;;5117577;28;20027;-71
2023/10/28 09:33:25;;;;;;;4.63;1.00;;;13.60;99.90;;;;;;5115885;28;20483;-71
2023/10/28 09:35:55;;;;;;;2.45;0.77;;;13.60;99.90;;;;;;5115518;28;20027;-71
2023/10/28 09:38:21;;;;;;;1.48;0.70;;;13.60;99.90;;;;;;5115523;28;20543;-71
2023/10/28 09:40:47;;;;;;;2.83;0.90;;;13.50;99.90;;;;;;5115182;28;20094;-70
2023/10/28 09:43:15;;;;;;;1.80;0.60;;;13.50;99.90;;;;;;5115041;28;20024;-71
2023/10/28 09:45:45;;;;;;;3.63;0.80;;;13.50;99.90;;;;;;5115311;28;20035;-71
2023/10/28 09:48:12;;;;;;;3.65;0.70;;;13.40;99.90;;;;;;5116003;28;20059;-71
2023/10/28 09:50:44;;;;;;;4.97;0.60;;;13.40;99.90;;;;;;5123255;28;20015;-71
2023/10/28 09:53:13;;;;;;;2.17;0.68;;;13.40;99.90;;;;;;5119718;28;20016;-71
2023/10/28 09:55:42;;;;;;;2.50;0.70;;;13.40;99.90;;;;;;5098704;28;20027;-71
2023/10/28 09:58:21;;;;;;;1.63;0.50;;;13.40;99.90;;;;;;5116864;28;20446;-71
2023/10/28 10:00:49;;;;;;;1.48;0.47;;;13.40;99.90;;;;;;5117060;28;20035;-71
2023/10/28 10:03:37;;;;;;;1.88;0.60;;;13.40;99.90;;;;;;5099004;28;20027;-71
2023/10/28 10:06:03;;;;;;;2.58;0.75;;;13.50;99.90;;;;;;5117301;28;20058;-71
2023/10/28 10:08:29;;;;;;;1.92;0.60;;;13.50;99.90;;;;;;5117294;28;20024;-71
2023/10/28 10:10:57;;;;;;;2.53;0.60;;;13.60;99.90;;;;;;5117191;28;20047;-71
2023/10/28 10:13:23;;;;;;;3.25;0.73;;;13.70;99.90;;;;;;5122665;28;20015;-71
2023/10/28 10:16:04;;;;;;;2.85;0.70;;;13.70;99.90;;;;;;5119936;28;20035;-71
2023/10/28 10:18:37;;;;;;;1.60;0.55;;;13.70;99.90;;;;;;5117081;28;20024;-71
2023/10/28 10:21:09;;;;;;;3.80;0.65;;;13.70;99.90;;;;;;5120957;28;20031;-71
2023/10/28 10:23:45;;;;;;;2.25;0.70;;;13.70;99.90;;;;;;5120771;28;20024;-71
2023/10/28 10:26:28;;;;;;;2.20;0.70;;;13.60;99.90;;;;;;5120657;28;20027;-71
2023/10/28 10:29:00;;;;;;;4.80;0.50;;;13.60;99.90;;;;;;5120248;28;20428;-71
2023/10/28 10:31:35;;;;;;;3.17;0.80;;;13.50;99.90;;;;;;5102338;28;20034;-71
2023/10/28 10:34:07;;;;;;;2.22;0.55;;;13.50;99.90;;;;;;5120592;28;20103;-71
2023/10/28 10:36:43;;;;;;;5.60;1.10;;;13.50;99.90;;;;;;5102043;28;20496;-71
2023/10/28 10:39:14;;;;;;;3.85;1.00;;;13.50;99.90;;;;;;5120579;28;20119;-71
2023/10/28 10:41:41;;;;;;;2.42;0.90;;;13.50;99.90;;;;;;5120148;28;20460;-71
2023/10/28 10:44:36;;;;;;;5.28;0.90;;;13.50;99.90;;;;;;5120154;28;20081;-71
2023/10/28 10:47:03;;;;;;;2.33;0.73;;;13.50;99.90;;;;;;5102098;28;20025;-71
2023/10/28 10:49:30;;;;;;;1.65;0.73;;;13.40;99.90;;;;;;5120085;28;20028;-71
2023/10/28 10:51:58;;;;;;;2.22;0.90;;;13.40;99.90;;;;;;5129877;27;20123;-72
2023/10/28 10:54:31;;;;;;;4.18;0.98;;;13.40;99.90;;;;;;5120160;28;20020;-71
2023/10/28 10:56:58;;;;;;;;;;;13.40;99.90;;;;;;5097633;28;20169;-71
2023/10/28 10:59:33;;;;;;;5.07;0.90;;;13.50;99.90;;;;;;5119742;28;19911;-71
2023/10/28 11:02:03;;;;;;;2.58;0.73;;;13.50;99.90;;;;;;5119861;28;20565;-71
2023/10/28 11:04:29;;;;;;;2.10;0.73;;;13.60;99.90;;;;;;5119805;28;20537;-71
2023/10/28 11:06:56;;;;;;;2.35;0.65;;;13.60;99.90;;;;;;5120147;28;20069;-71
2023/10/28 11:09:22;;;;;;;4.35;0.93;;;13.70;99.90;;;;;;5119730;28;20032;-71
2023/10/28 11:11:48;;;;;;;3.42;1.20;;;13.80;99.90;;;;;;5101394;28;20503;-71
2023/10/28 11:14:13;;;;;;;3.83;1.00;;;13.80;99.90;;;;;;5110763;28;20027;-71
2023/10/28 11:16:41;;;;;;;3.47;1.20;;;13.80;99.90;;;;;;5119707;28;20031;-71
2023/10/28 11:19:08;;;;;;;5.13;1.13;;;13.80;99.90;;;;;;5119685;28;20055;-71
2023/10/28 11:21:35;;;;;;;3.25;0.90;;;13.70;99.90;;;;;;5101402;28;20688;-71
2023/10/28 11:24:01;;;;;;;2.70;0.85;;;13.70;99.90;;;;;;5119420;28;20593;-71
2023/10/28 11:26:27;;;;;;;2.55;1.10;;;13.70;99.90;;;;;;5119508;28;20023;-71
2023/10/28 11:28:58;;;;;;;2.58;0.80;;;13.70;99.90;;;;;;5119233;28;20036;-71
2023/10/28 11:31:24;;;;;;;4.95;1.30;;;13.70;99.90;;;;;;5100891;28;20058;-71
2023/10/28 11:33:50;;;;;;;3.58;1.02;;;13.80;99.90;;;;;;5119338;28;20028;-71
2023/10/28 11:36:16;;;;;;;4.35;1.13;;;13.80;99.90;;;;;;5119258;28;20015;-71
2023/10/28 11:38:43;;;;;;;4.32;0.93;;;13.90;99.90;;;;;;5119237;28;20111;-71
2023/10/28 11:41:09;;;;;;;3.05;0.95;;;14.00;99.90;;;;;;5119072;28;20047;-71
2023/10/28 11:43:36;;;;;;;5.80;1.10;;;14.00;99.90;;;;;;5100471;28;20043;-71
2023/10/28 11:46:01;;;;;;;5.28;1.13;;;14.00;99.90;;;;;;5119178;28;20031;-71
2023/10/28 11:48:27;;;;;;;4.53;1.20;;;14.00;99.90;;;;;;5119148;28;20023;-71
2023/10/28 11:50:54;;;;;;;3.30;0.70;;;14.00;99.90;;;;;;5127222;27;20386;-71
2023/10/28 11:53:23;;;;;;;2.97;0.70;;;13.90;99.90;;;;;;5119989;27;20031;-71
2023/10/28 11:55:49;;;;;;;3.58;0.90;;;13.90;99.90;;;;;;5100458;28;20020;-71
2023/10/28 11:58:15;;;;;;;4.85;0.90;;;13.90;99.90;;;;;;5118638;28;20079;-71
2023/10/28 12:00:41;;;;;;;2.58;0.90;;;13.80;99.90;;;;;;5118656;28;20055;-71
2023/10/28 12:03:06;;;;;;;2.15;0.90;;;13.90;99.90;;;;;;5100363;28;20027;-71
2023/10/28 12:05:35;;;;;;;5.20;1.00;;;13.80;99.90;;;;;;5118758;28;20016;-71
2023/10/28 12:08:01;;;;;;;3.47;0.75;;;13.90;99.90;;;;;;5118775;28;20051;-71
2023/10/28 12:10:27;;;;;;;3.67;0.63;;;13.90;99.90;;;;;;5118721;28;20016;-71
2023/10/28 12:12:53;;;;;;;3.03;0.70;;;14.00;99.90;;;;;;5101980;27;20038;-71
2023/10/28 12:15:18;;;;;;;4.05;0.90;;;14.00;99.90;;;;;;5125165;27;20024;-71
2023/10/28 12:17:44;;;;;;;4.50;0.93;;;14.00;99.90;;;;;;5118826;28;20055;-71
2023/10/28 12:20:14;;;;;;;5.18;0.90;;;14.10;99.90;;;;;;5118540;28;20041;-71
2023/10/28 12:22:40;;;;;;;2.75;0.68;;;14.20;99.90;;;;;;5100031;28;20024;-71
2023/10/28 12:25:09;;;;;;;3.35;0.80;;;14.30;99.90;;;;;;5118272;28;20016;-71
2023/10/28 12:27:34;;;;;;;2.58;0.70;;;14.40;99.90;;;;;;5118370;28;20039;-70
2023/10/28 12:30:00;;;;;;;1.95;0.55;;;14.40;99.90;;;;;;5118075;28;20487;-70
2023/10/28 12:32:26;;;;;;;2.25;0.50;;;14.40;99.90;;;;;;5118425;28;20023;-70
2023/10/28 12:34:51;;;;;;;4.22;0.70;;;14.50;99.90;;;;;;5118259;28;21163;-70
2023/10/28 12:37:17;;;;;;;3.13;1.10;;;14.50;99.90;;;;;;5118345;28;20031;-70
2023/10/28 12:39:42;;;;;;;5.30;0.90;;;14.50;99.90;;;;;;5099651;28;20037;-71
2023/10/28 12:42:08;;;;;;;4.25;0.88;;;14.50;99.90;;;;;;5117373;28;20031;-71
2023/10/28 12:44:33;;;;;;;2.80;0.77;;;14.60;99.90;;;;;;5117906;28;20153;-71
2023/10/28 12:46:59;;;;;;;5.70;1.10;;;14.70;99.90;;;;;;5118011;28;20027;-71